Ogunquit, ME (03907)

1:15 PM EDT on July 24, 2017 (GMT -0400)
Middle Ogunquit River | | Change Station
Active Advisory: Coastal Flood Advisory Active Notice: Coastal Flood Advisory

Elev 144 ft 43.25 °N, 70.65 °W | Updated 15 seconds ago

Rain
Rain
63.3 °F
Feels Like 63.3 °F
N
2.0
Wind Variable Wind from East
Gusts 4.0 mph

Today
High -- | Low -- °F
--% Chance of Precip.
Yesterday
High -- | Low -- °F
Precip. -- in
Pressure 30.03 in
Visibility 10.0 miles
Clouds
Dew Point 58 °F
Humidity 82%
Rainfall 0.04 in
Snow Depth Not available.
5:24 AM 8:12 PM
New Moon, 2% visible
METAR KSFM 241656Z AUTO 07006KT 10SM -RA 17/13 A3000 RMK AO2 SLP168 P0001 T01670133 $
Pressure 30.03 in
Visibility 10.0 miles
Clouds
Dew Point 58 °F
Humidity 82%
Rainfall 0.04 in
Snow Depth Not available.
5:24 AM 8:12 PM
New Moon, 2% visible
METAR KSFM 241656Z AUTO 07006KT 10SM -RA 17/13 A3000 RMK AO2 SLP168 P0001 T01670133 $

Get Your Daily Forecast Email!

Thanks for signing up!

Be on the lookout for a verification email in your inbox.

You'll start receiving severe weather alerts in your inbox..

×

10-Day Weather Forecast

Almanac

Astronomy

Jul. 24, 2017 Rise Set
Actual Time
Civil Twilight
Nautical Twilight
Astronomical Twilight
Moon
Length of Visible Light
Length of Day
Tomorrow will be .
, % of the Moon is Illuminated

Today's Extremes

State Highs State Lows

Community

WunderPhotos

Category 6

Welcome to Category 6. This is the collective home for Weather Underground's featured writeups by Dr. Jeff Masters (right), Bob Henson (left), Chris Burt, and other regular contributors.

Nearby

Air Quality

  Air Quality AQ Index Pollutant
Not available.

Snow Depth

Station Depth Elevation

Earthquake Activity

City Distance Mag. Time & Date
Minimum magnitude displayed is 2.5.

Coastal Water Temperatures

Place Temperature

Stations

Nearby Weather Stations

Station Location Temp. Windchill Dew Point Humidity Wind Precip. Elev Updated Type
                   

Watches & Warnings

Coastal Flood Advisory
Issued: 11:12 AM EDT Jul. 24, 2017 – National Weather Service

... Coastal flood advisory remains in effect from midnight tonight
to 3 am EDT Tuesday...

* location... coastal New Hampshire and the southwest coast of
Maine

* coastal flooding... minor flooding of wharfs and shore roads.

* Timing... around the time of high tide... which is at 1246am at
Portland.

Precautionary/preparedness actions...

A coastal flood advisory indicates that onshore winds and tides
will combine to generate flooding of low areas along the shore.